Latest Weather Observations for Redesdale

IDV60801

Issued at 6:02 am EST Friday 31 July 2015 (issued every 30 minutes, with the page automatically refreshed every 10 minutes)

About weather observations | Map of weather stations | Latest weather observations for VIC | Other Formats
Station Details ID: 088051 Name: REDESDALE Lat: -37.02 Lon: 144.52 Height: 290.0 m
Data from the previous 72 hours. | See also: Recent months at Redesdale
Date/Time
EST
Temp
°C
App
Temp
°C
Dew
Point
Rel
Hum
%
Delta-T
°C
Wind Press
QNH
hPa
Press
MSL
hPa
Rain
since 9 am
mm
Dir
 
Spd
km/h
Gust
km/h
Spd
kts
Gust
kts
31/06:00am 0.7 -2.3 -5.5 63 2.0 SW 2 4 1 2 - - 1.4
31/05:30am -0.1 -4.0 -6.3 63 1.9 S 6 6 3 3 - - 1.4
31/05:00am 0.1 -3.9 -6.1 63 2.0 SSW 7 9 4 5 - - 1.4
31/04:30am -0.5 -4.4 -6.7 63 1.9 SSW 6 9 3 5 - - 1.4
31/04:00am 0.6 -3.4 -5.6 63 2.0 SSW 7 9 4 5 - - 1.4
31/03:30am 0.6 -3.4 -5.6 63 2.0 S 7 9 4 5 - - 1.4
31/03:00am 0.9 -2.9 -5.3 63 2.1 SSW 6 7 3 4 - - 1.4
31/02:30am 0.9 -2.9 -5.3 63 2.1 S 6 7 3 4 - - 1.4
31/02:00am 1.4 -1.6 -4.9 63 2.1 SW 2 4 1 2 - - 1.2
31/01:30am 1.5 -2.2 -4.8 63 2.2 SW 6 7 3 4 - - 1.2
31/01:00am 3.0 -0.2 -3.3 63 2.2 SSW 4 4 2 2 - - 1.2
31/12:30am 3.5 0.7 -2.9 63 2.3 WSW 2 4 1 2 - - 1.2
31/12:00am 5.7 2.8 -0.8 63 2.5 S 4 6 2 3 - - 1.2
 
Date/Time
EST
Temp
°C
App
Temp
°C
Dew
Point
Rel
Hum
%
Delta-T
°C
Wind Press
QNH
hPa
Press
MSL
hPa
Rain
since 9 am
mm
Dir
 
Spd
km/h
Gust
km/h
Spd
kts
Gust
kts
30/11:30pm 6.4 3.6 -0.1 63 2.6 SSE 4 4 2 2 - - 1.2
30/11:00pm 6.9 3.8 0.4 63 2.6 SSE 6 9 3 5 - - 1.2
30/10:30pm 6.9 4.6 0.4 63 2.6 S 2 4 1 2 - - 1.0
30/10:00pm 6.9 3.8 0.4 63 2.6 SE 6 9 3 5 - - 0.8
30/09:30pm 7.1 3.5 0.5 63 2.7 N 9 13 5 7 - - 0.6
30/09:00pm 7.2 3.6 0.6 63 2.7 NNE 9 13 5 7 - - 0.4
30/08:30pm 7.3 3.3 0.7 63 2.7 N 11 15 6 8 - - 0.4
30/08:00pm 7.3 3.3 0.7 63 2.7 N 11 15 6 8 - - 0.4
30/07:30pm 7.5 3.2 0.9 63 2.7 N 13 19 7 10 - - 0.2
30/07:00pm 7.4 2.3 0.8 63 2.7 N 17 22 9 12 - - 0.2
30/06:30pm 7.1 2.7 0.5 63 2.7 N 13 19 7 10 - - 0.2
30/06:00pm 7.5 3.6 0.9 63 2.7 NNE 11 19 6 10 - - 0.2
30/05:30pm 8.0 2.4 1.4 63 2.7 N 20 28 11 15 - - 0.0
30/05:00pm 8.5 2.6 1.9 63 2.8 N 22 32 12 17 - - 0.0
30/04:30pm 8.6 3.1 2.0 63 2.8 N 20 28 11 15 - - 0.0
30/04:00pm 8.9 3.1 2.3 63 2.8 N 22 37 12 20 - - 0.0
30/03:30pm 9.1 2.9 2.4 63 2.9 N 24 35 13 19 - - 0.0
30/03:00pm 8.8 3.4 2.2 63 2.8 NNE 20 32 11 17 - - 0.0
30/02:30pm 8.8 3.4 2.2 63 2.8 N 20 28 11 15 - - 0.0
30/02:00pm 8.6 3.3 2.0 63 2.8 N 19 30 10 16 - - 0.0
30/01:30pm 8.6 2.4 2.0 63 2.8 NNE 24 39 13 21 - - 0.0
30/01:00pm 8.3 2.0 1.7 63 2.8 N 24 35 13 19 - - 0.0
30/12:30pm 8.6 3.3 2.0 63 2.8 N 19 26 10 14 - - 0.0
30/12:00pm 8.0 3.0 1.4 63 2.7 N 17 24 9 13 - - 0.0
30/11:30am 7.5 2.0 0.9 63 2.7 N 19 28 10 15 - - 0.0
30/11:00am 7.5 2.0 0.9 63 2.7 N 19 26 10 14 - - 0.0
30/10:30am 6.4 2.3 -0.1 63 2.6 N 11 19 6 10 - - 0.0
30/10:00am 5.7 0.8 -0.8 63 2.5 N 15 22 8 12 - - 0.0
30/09:30am 5.4 0.8 -1.1 63 2.5 N 13 19 7 10 - - 0.0
30/09:00am 4.6 0.7 -1.8 63 2.4 N 9 13 5 7 - - 0.0
30/08:30am 3.4 -0.1 -3.0 63 2.3 NNE 6 7 3 4 - - 0.0
30/08:00am 3.1 -0.1 -3.2 63 2.2 N 4 6 2 3 - - 0.0
30/07:30am 2.0 -0.9 -4.3 63 2.2 NNW 2 4 1 2 - - 0.0
30/07:00am 2.2 -1.1 -4.1 63 2.1 NNW 4 4 2 2 - - 0.0
30/06:30am 2.7 -0.1 -3.6 63 2.2 N 2 6 1 3 - - 0.0
30/06:00am 3.3 -0.2 -3.1 63 2.2 N 6 7 3 4 - - 0.0
30/05:30am 3.6 0.1 -2.8 63 2.3 N 6 7 3 4 - - 0.0
30/05:00am 4.1 1.0 -2.3 63 2.3 NNE 4 9 2 5 - - 0.0
30/04:30am 4.6 2.0 -1.8 63 2.4 NW 2 4 1 2 - - 0.0
30/04:00am 4.2 1.5 -2.2 63 2.3 NW 2 2 1 1 - - 0.0
30/03:30am 4.1 1.4 -2.3 63 2.3 NW 2 4 1 2 - - 0.0
30/03:00am 3.8 1.1 -2.6 63 2.3 NW 2 4 1 2 - - 0.0
30/02:30am 4.7 2.5 -1.7 63 2.4 CALM 0 0 0 0 - - 0.0
30/02:00am 4.5 1.5 -1.9 63 2.3 NW 4 4 2 2 - - 0.0
30/01:30am 4.2 1.2 -2.2 63 2.3 N 4 6 2 3 - - 0.0
30/01:00am 4.8 1.8 -1.6 63 2.4 NNE 4 6 2 3 - - 0.0
30/12:30am 5.5 2.6 -1.0 63 2.5 NNE 4 6 2 3 - - 0.0
30/12:00am 6.1 2.9 -0.4 63 2.5 N 6 7 3 4 - - 0.0
 
Date/Time
EST
Temp
°C
App
Temp
°C
Dew
Point
Rel
Hum
%
Delta-T
°C
Wind Press
QNH
hPa
Press
MSL
hPa
Rain
since 9 am
mm
Dir
 
Spd
km/h
Gust
km/h
Spd
kts
Gust
kts
29/11:30pm 5.6 2.7 -0.9 63 2.5 N 4 6 2 3 - - 0.0
29/11:00pm 5.7 2.5 -0.8 63 2.5 N 6 7 3 4 - - 0.0
29/10:30pm 6.2 3.0 -0.3 63 2.5 N 6 6 3 3 - - 0.0
29/10:00pm 6.2 3.0 -0.3 63 2.5 N 6 7 3 4 - - 0.0
29/09:30pm 7.0 3.8 0.5 63 2.6 N 7 9 4 5 - - 0.0
29/09:00pm 6.7 4.0 0.2 63 2.6 N 4 7 2 4 - - 0.0
29/08:30pm 6.6 3.5 0.1 63 2.6 NNE 6 7 3 4 - - 0.0
29/08:00pm 7.1 4.1 0.5 63 2.7 NNE 6 9 3 5 - - 0.0
29/07:30pm 7.6 4.6 1.0 63 2.7 N 6 9 3 5 - - 0.0
29/07:00pm 7.7 4.6 1.1 63 2.7 N 7 11 4 6 - - 0.0
29/06:30pm 7.6 4.6 1.0 63 2.7 NNE 6 11 3 6 - - 0.0
29/06:00pm 7.8 4.3 1.2 63 2.7 N 9 13 5 7 - - 0.0
29/05:30pm 8.1 5.4 5.7 85 1.1 NNE 9 13 5 7 - - 0.0
29/05:00pm 8.3 5.2 5.6 83 1.2 N 11 17 6 9 - - 0.0
29/04:30pm 8.4 5.7 5.5 82 1.3 NNE 9 13 5 7 - - 0.0
29/04:00pm 8.7 5.7 6.0 83 1.3 NNE 11 19 6 10 - - 0.0
29/03:30pm 8.8 5.4 5.9 82 1.3 NNE 13 20 7 11 - - 0.0
29/03:00pm 8.8 5.7 5.7 81 1.4 NNE 11 19 6 10 - - 0.0
29/02:30pm 9.6 5.5 4.2 69 2.4 NNW 15 22 8 12 - - 0.0
29/02:00pm 9.9 6.3 4.9 71 2.3 N 13 20 7 11 - - 0.0
29/01:30pm 9.4 5.8 4.8 73 2.1 N 13 19 7 10 - - 0.0
29/01:00pm 9.2 5.8 4.2 71 2.2 NNE 11 19 6 10 - - 0.0
29/12:30pm 9.5 6.3 5.1 74 2.0 N 11 17 6 9 - - 0.0
29/12:00pm 9.1 6.4 5.7 79 1.6 NNE 9 13 5 7 - - 0.0
29/11:30am 8.3 5.9 5.2 81 1.4 N 7 13 4 7 - - 0.0
29/11:00am 7.9 5.4 4.5 79 1.5 NNE 7 11 4 6 - - 0.0
29/10:30am 8.0 6.1 4.8 80 1.4 NNE 4 7 2 4 - - 0.0
29/10:00am 6.8 4.4 4.3 84 1.1 NE 6 7 3 4 - - 0.0
29/09:30am 5.6 3.9 4.2 91 0.6 SSW 2 2 1 1 - - 0.0
29/09:00am 3.1 1.5 2.2 94 0.4 CALM 0 4 0 2 - - 0.2
29/08:30am 2.2 -0.7 1.6 96 0.2 SSW 6 6 3 3 - - 0.0
29/08:00am 0.6 -2.7 0.0 96 0.2 SSW 7 7 4 4 - - 0.0
29/07:30am -0.4 -3.9 -1.0 96 0.2 SSW 7 9 4 5 - - 0.0
29/07:00am -0.7 -4.2 -1.3 96 0.2 SSW 7 9 4 5 - - 0.0
29/06:30am -0.5 -3.8 -1.1 96 0.2 SSE 6 11 3 6 - - 0.0
29/06:00am -0.2 -3.6 -0.6 97 0.1 SSW 7 9 4 5 - - 0.0
29/05:30am 0.2 -3.1 -0.2 97 0.1 SSW 7 7 4 4 - - 0.0
29/05:00am -0.5 -4.0 -1.1 96 0.2 SSW 7 9 4 5 - - 0.0
29/04:30am -0.2 -3.6 -0.6 97 0.1 S 7 9 4 5 - - 0.0
29/04:00am 0.8 -2.8 0.5 98 0.1 S 9 11 5 6 - - 0.0
29/03:30am -0.4 -3.6 -0.8 97 0.1 S 6 9 3 5 - - 0.0
29/03:00am 0.6 -2.7 0.3 98 0.1 S 7 9 4 5 - - 0.0
29/02:30am 1.0 -2.2 0.7 98 0.1 SSW 7 9 4 5 - - 0.0
29/02:00am 0.5 -2.8 0.1 97 0.1 SW 7 7 4 4 - - 0.0
29/01:30am 1.0 -2.2 0.6 97 0.2 SSW 7 7 4 4 - - 0.0
29/01:00am 1.7 -0.9 1.1 96 0.2 SSE 4 6 2 3 - - 0.0
29/12:30am 0.9 -2.2 0.2 95 0.3 SSW 6 7 3 4 - - 0.0
29/12:00am 2.0 -0.2 1.3 95 0.3 S 2 4 1 2 - - 0.0
 
Date/Time
EST
Temp
°C
App
Temp
°C
Dew
Point
Rel
Hum
%
Delta-T
°C
Wind Press
QNH
hPa
Press
MSL
hPa
Rain
since 9 am
mm
Dir
 
Spd
km/h
Gust
km/h
Spd
kts
Gust
kts
28/11:30pm 1.7 -0.9 1.0 95 0.3 SSW 4 7 2 4 - - 0.0
28/11:00pm 1.6 -1.4 0.7 94 0.3 SSW 6 7 3 4 - - 0.0
28/10:30pm 1.9 -1.3 0.7 92 0.5 SSE 7 9 4 5 - - 0.0
28/10:00pm 2.8 0.7 1.6 92 0.5 SSE 2 4 1 2 - - 0.0
28/09:30pm 3.6 1.6 2.4 92 0.5 SSE 2 4 1 2 - - 0.0
28/09:00pm 3.3 0.5 1.8 90 0.6 SE 6 6 3 3 - - 0.0
28/08:30pm 3.4 0.6 1.8 89 0.6 SE 6 6 3 3 - - 0.0
28/08:00pm 4.7 3.0 1.9 82 1.1 CALM 0 0 0 0 - - 0.0
28/07:30pm 4.8 2.0 2.0 82 1.1 SSW 6 6 3 3 - - 0.0
28/07:00pm 6.2 3.7 1.7 73 1.8 WSW 4 7 2 4 - - 0.0
28/06:30pm 8.2 5.5 2.7 68 2.4 W 6 9 3 5 - - 0.0
28/06:00pm 8.7 6.0 2.7 66 2.6 WNW 6 9 3 5 - - 0.0
28/05:30pm 10.1 7.5 3.2 62 3.0 WNW 6 9 3 5 - - 0.0
28/05:00pm 11.3 8.6 3.6 59 3.5 NW 7 13 4 7 - - 0.0
28/04:30pm 12.4 9.5 2.8 52 4.3 WNW 7 13 4 7 - - 0.0
28/04:00pm 12.7 10.0 3.6 54 4.1 WNW 7 13 4 7 - - 0.0
28/03:30pm 13.3 10.2 3.7 52 4.4 WNW 9 15 5 8 - - 0.0
28/03:00pm 12.9 9.7 3.0 51 4.5 WNW 9 15 5 8 - - 0.0
28/02:30pm 12.7 9.8 2.8 51 4.4 WSW 7 13 4 7 - - 0.0
28/02:00pm 13.6 11.3 5.0 56 4.1 W 6 11 3 6 - - 0.0
28/01:30pm 12.4 9.5 4.9 60 3.5 NW 9 15 5 8 - - 0.0
28/01:00pm 12.6 10.4 5.3 61 3.4 NW 6 11 3 6 - - 0.0
28/12:30pm 11.3 9.0 5.0 65 2.9 W 6 9 3 5 - - 0.0
28/12:00pm 11.7 9.8 5.1 64 3.1 W 4 7 2 4 - - 0.0
28/11:30am 11.1 9.3 5.2 67 2.7 W 4 7 2 4 - - 0.0
28/11:00am 10.6 8.2 5.2 69 2.5 WSW 7 15 4 8 - - 0.0
28/10:30am 9.8 7.4 5.4 74 2.0 WSW 7 15 4 8 - - 0.0
28/10:00am 9.1 6.9 6.0 81 1.4 WSW 7 13 4 7 - - 0.0
28/09:30am 8.3 5.2 5.4 82 1.3 SW 11 17 6 9 - - 0.0
28/09:00am 8.0 5.9 5.6 85 1.1 SW 6 9 3 5 - - 0.0
28/08:30am 6.5 5.0 5.0 90 0.7 WSW 2 4 1 2 - - 0.0
28/08:00am 5.6 3.6 4.4 92 0.5 SSW 4 6 2 3 - - 0.0
28/07:30am 5.2 2.7 4.0 92 0.5 SW 6 7 3 4 - - 0.0
28/07:00am 5.5 3.1 4.3 92 0.5 SW 6 7 3 4 - - 0.0
28/06:30am 5.7 3.1 4.3 91 0.6 SW 7 9 4 5 - - 0.0

Other Formats:

Comma delimited format used in spreadsheet applications
http://www.bom.gov.au/fwo/IDV60801/IDV60801.94859.axf

JavaScript Object Notation format (JSON) in row-major order
http://www.bom.gov.au/fwo/IDV60801/IDV60801.94859.json